createdAt,value
2018-09-18T00:02:15.999Z,68.70
2018-09-18T00:04:43.785Z,68.90
2018-09-18T00:07:11.593Z,69.40
2018-09-18T00:09:39.351Z,69.40
2018-09-18T00:12:07.167Z,69.80
2018-09-18T00:14:34.951Z,69.90
2018-09-18T00:17:02.748Z,70.10
2018-09-18T00:19:30.530Z,70.40
2018-09-18T00:21:58.297Z,70.80
2018-09-18T00:24:26.125Z,70.80
2018-09-18T00:26:53.946Z,71.40
2018-09-18T00:29:22.112Z,71.70
2018-09-18T00:31:49.964Z,72.00
2018-09-18T00:34:17.740Z,72.50
2018-09-18T00:36:45.541Z,71.80
2018-09-18T00:39:13.353Z,71.60
2018-09-18T00:41:41.133Z,71.90
2018-09-18T00:44:08.917Z,72.30
2018-09-18T00:46:36.695Z,72.60
2018-09-18T00:49:04.510Z,72.50
2018-09-18T00:51:32.273Z,72.70
2018-09-18T00:54:00.038Z,73.10
2018-09-18T00:56:27.828Z,73.30
2018-09-18T00:58:55.749Z,73.80
2018-09-18T01:01:23.647Z,73.70
2018-09-18T01:03:52.452Z,73.60
2018-09-18T01:06:20.333Z,74.00
2018-09-18T01:08:48.261Z,73.50
2018-09-18T01:11:16.038Z,73.80
2018-09-18T01:13:43.796Z,74.30
2018-09-18T01:16:11.581Z,74.00
2018-09-18T01:18:40.685Z,74.20
2018-09-18T01:21:09.116Z,74.70
2018-09-18T01:23:37.105Z,74.80
2018-09-18T01:26:04.976Z,74.90
2018-09-18T01:28:33.226Z,74.50
2018-09-18T01:31:01.029Z,74.50
2018-09-18T01:33:28.909Z,74.90
2018-09-18T01:35:56.796Z,74.70
2018-09-18T01:38:24.844Z,74.00
2018-09-18T01:40:53.045Z,73.60
2018-09-18T01:43:21.249Z,73.30
2018-09-18T01:45:49.559Z,72.60
2018-09-18T01:48:17.666Z,73.00
2018-09-18T01:50:45.517Z,73.30
2018-09-18T01:53:13.400Z,73.70
2018-09-18T01:55:41.247Z,73.80
2018-09-18T01:58:09.080Z,74.40
2018-09-18T02:00:36.962Z,74.50
2018-09-18T02:03:04.833Z,74.50
2018-09-18T02:05:32.642Z,75.00
2018-09-18T02:08:00.670Z,75.20
2018-09-18T02:10:28.488Z,75.30
2018-09-18T02:12:56.632Z,75.30
2018-09-18T02:15:24.428Z,75.40
2018-09-18T02:17:52.321Z,75.30
2018-09-18T02:20:20.240Z,75.40
2018-09-18T02:22:48.072Z,75.00
2018-09-18T02:25:15.926Z,74.50
2018-09-18T02:27:43.697Z,74.80
2018-09-18T02:30:11.532Z,75.20
2018-09-18T02:32:39.292Z,75.50
2018-09-18T02:35:07.054Z,75.80
2018-09-18T02:37:34.834Z,76.30
2018-09-18T02:40:03.489Z,76.50
2018-09-18T02:42:31.446Z,77.10
2018-09-18T02:44:59.228Z,76.50
2018-09-18T02:47:27.096Z,76.20
2018-09-18T02:49:54.869Z,76.50
2018-09-18T02:52:22.775Z,76.50
2018-09-18T02:54:50.612Z,76.30
2018-09-18T02:57:18.410Z,76.40
2018-09-18T02:59:46.177Z,76.20
2018-09-18T03:02:13.988Z,76.50
2018-09-18T03:04:42.653Z,76.40
2018-09-18T03:07:10.456Z,76.60
2018-09-18T03:09:38.204Z,76.50
2018-09-18T03:12:06.003Z,76.80
2018-09-18T03:14:33.781Z,76.90
2018-09-18T03:17:01.522Z,77.50
2018-09-18T03:19:29.345Z,76.50
2018-09-18T03:21:57.240Z,76.60
2018-09-18T03:24:25.027Z,76.90
2018-09-18T03:26:52.929Z,77.10
2018-09-18T03:29:20.825Z,77.10
2018-09-18T03:31:48.632Z,77.10
2018-09-18T03:34:16.410Z,77.10
2018-09-18T03:36:44.189Z,77.40
2018-09-18T03:39:11.999Z,77.30
2018-09-18T03:41:39.765Z,77.40
2018-09-18T03:44:07.585Z,77.50
2018-09-18T03:46:35.389Z,77.60
2018-09-18T03:49:03.200Z,77.70
2018-09-18T03:51:30.977Z,78.00
2018-09-18T03:53:58.813Z,78.10
2018-09-18T03:56:26.579Z,78.20
2018-09-18T03:58:54.525Z,79.00
2018-09-18T04:01:22.567Z,78.40
2018-09-18T04:03:53.951Z,78.40
2018-09-18T04:06:23.001Z,78.40
2018-09-18T04:08:51.075Z,78.50
2018-09-18T04:11:18.889Z,78.80
2018-09-18T04:13:46.740Z,78.80
2018-09-18T04:16:14.532Z,78.90
2018-09-18T04:18:42.292Z,79.10
2018-09-18T04:21:10.098Z,79.10
2018-09-18T04:23:37.889Z,78.30
2018-09-18T04:26:05.873Z,78.70
2018-09-18T04:28:33.713Z,78.90
2018-09-18T04:31:01.517Z,79.20
2018-09-18T04:33:29.349Z,79.30
2018-09-18T04:35:57.157Z,79.30
2018-09-18T04:38:25.003Z,79.60
2018-09-18T04:40:53.005Z,79.90
2018-09-18T04:43:21.040Z,80.20
2018-09-18T04:45:48.817Z,80.40
2018-09-18T04:48:16.589Z,80.10
2018-09-18T04:50:44.487Z,80.20
2018-09-18T04:53:12.257Z,80.00
2018-09-18T04:55:40.860Z,80.20
2018-09-18T04:58:08.707Z,80.30
2018-09-18T05:00:36.846Z,79.50
2018-09-18T05:03:05.069Z,79.60
2018-09-18T05:05:32.821Z,79.40
2018-09-18T05:08:00.687Z,79.00
2018-09-18T05:10:28.509Z,78.20
2018-09-18T05:12:56.329Z,78.20
2018-09-18T05:15:24.109Z,78.60
2018-09-18T05:17:51.954Z,78.10
2018-09-18T05:20:19.814Z,78.20
2018-09-18T05:22:47.586Z,78.30
2018-09-18T05:25:15.388Z,77.90
2018-09-18T05:27:43.177Z,78.90
2018-09-18T05:30:10.924Z,78.20
2018-09-18T05:32:38.688Z,78.60
2018-09-18T05:35:06.517Z,77.80
2018-09-18T05:37:34.285Z,77.60
2018-09-18T05:40:02.052Z,77.20
2018-09-18T05:42:29.942Z,76.90
2018-09-18T05:44:57.832Z,77.50
2018-09-18T05:47:25.607Z,77.00
2018-09-18T05:49:53.581Z,76.90
2018-09-18T05:52:21.496Z,76.30
2018-09-18T05:54:49.326Z,75.70
2018-09-18T05:57:17.182Z,74.80
2018-09-18T05:59:44.977Z,73.80
2018-09-18T06:02:12.745Z,72.30
2018-09-18T06:04:40.936Z,70.30
2018-09-18T06:07:08.769Z,69.70
2018-09-18T06:09:36.544Z,69.50
2018-09-18T06:12:04.345Z,68.00
2018-09-18T06:14:32.177Z,66.60
2018-09-18T06:16:59.946Z,66.80
2018-09-18T06:19:27.809Z,65.50
2018-09-18T06:21:55.545Z,64.80
2018-09-18T06:24:23.351Z,65.30
2018-09-18T06:26:51.216Z,63.70
2018-09-18T06:29:18.973Z,63.20
2018-09-18T06:31:46.759Z,61.10
2018-09-18T06:34:14.524Z,61.20
2018-09-18T06:36:42.296Z,61.00
2018-09-18T06:39:11.115Z,59.80
2018-09-18T06:41:39.256Z,58.90
2018-09-18T06:44:07.149Z,58.30
2018-09-18T06:46:34.906Z,58.10
2018-09-18T06:49:02.712Z,57.60
2018-09-18T06:51:30.637Z,57.40
2018-09-18T06:53:58.453Z,56.30
2018-09-18T06:56:26.265Z,56.30
2018-09-18T06:58:54.092Z,55.90
2018-09-18T07:01:22.002Z,55.90
2018-09-18T07:03:50.895Z,56.10
2018-09-18T07:06:18.745Z,54.60
2018-09-18T07:08:46.548Z,53.70
2018-09-18T07:11:14.296Z,53.80
2018-09-18T07:13:42.086Z,53.60
2018-09-18T07:16:09.868Z,53.60
2018-09-18T07:18:37.643Z,52.20
2018-09-18T07:21:05.605Z,51.20
2018-09-18T07:23:33.438Z,50.40
2018-09-18T07:26:01.325Z,50.30
2018-09-18T07:28:29.113Z,49.60
2018-09-18T07:30:56.946Z,50.60
2018-09-18T07:33:24.761Z,48.60
2018-09-18T07:35:52.633Z,48.80
2018-09-18T07:38:20.444Z,48.30
2018-09-18T07:40:48.260Z,46.60
2018-09-18T07:43:16.137Z,45.50
2018-09-18T07:45:44.101Z,43.40
2018-09-18T07:48:12.093Z,43.80
2018-09-18T07:50:40.164Z,45.70
2018-09-18T07:53:07.984Z,47.00
2018-09-18T07:55:36.547Z,46.90
2018-09-18T07:58:04.337Z,46.40
2018-09-18T08:00:32.173Z,45.50
2018-09-18T08:02:59.981Z,46.50
2018-09-18T08:05:27.777Z,45.30
2018-09-18T08:07:55.620Z,45.80
2018-09-18T08:10:23.472Z,45.70
2018-09-18T08:12:51.393Z,46.60
2018-09-18T08:15:19.217Z,46.50
2018-09-18T08:17:47.005Z,45.80
2018-09-18T08:20:14.773Z,43.40
2018-09-18T08:22:42.578Z,43.80
2018-09-18T08:25:10.383Z,44.90
2018-09-18T08:27:38.161Z,44.40
2018-09-18T08:30:05.977Z,45.20
2018-09-18T08:32:33.809Z,45.40
2018-09-18T08:35:01.583Z,45.30
2018-09-18T08:37:29.389Z,44.60
2018-09-18T08:39:57.295Z,43.40
2018-09-18T08:42:25.420Z,44.10
2018-09-18T08:44:53.332Z,42.70
2018-09-18T08:47:21.164Z,42.50
2018-09-18T08:49:48.941Z,41.40
2018-09-18T08:52:16.729Z,39.90
2018-09-18T08:54:44.524Z,41.20
2018-09-18T08:57:12.367Z,39.60
2018-09-18T08:59:40.157Z,39.90
2018-09-18T09:02:07.949Z,40.30
2018-09-18T09:04:35.787Z,39.50
2018-09-18T09:07:03.613Z,38.70
2018-09-18T09:09:31.439Z,38.30
2018-09-18T09:11:59.188Z,38.00
2018-09-18T09:14:27.083Z,37.40
2018-09-18T09:16:57.076Z,37.90
2018-09-18T09:19:24.950Z,38.40
2018-09-18T09:21:53.081Z,37.80
2018-09-18T09:24:20.653Z,37.50
2018-09-18T09:26:48.514Z,37.50
2018-09-18T09:29:16.297Z,38.30
2018-09-18T09:31:44.074Z,38.80
2018-09-18T09:34:11.854Z,36.90
2018-09-18T09:36:39.642Z,33.70
2018-09-18T09:39:09.413Z,33.70
2018-09-18T09:41:37.190Z,32.20
2018-09-18T09:44:05.040Z,32.50
2018-09-18T09:46:32.869Z,31.70
2018-09-18T09:49:00.653Z,31.80
2018-09-18T09:51:28.487Z,32.30
2018-09-18T09:53:56.296Z,32.10
2018-09-18T09:56:24.237Z,31.80
2018-09-18T09:58:52.085Z,31.70
2018-09-18T10:01:25.394Z,33.60
2018-09-18T10:03:53.413Z,36.10
2018-09-18T10:06:21.203Z,35.60
2018-09-18T10:08:48.957Z,34.80
2018-09-18T10:11:16.835Z,34.00
2018-09-18T10:13:44.619Z,33.40
2018-09-18T10:16:12.447Z,32.50
2018-09-18T10:18:40.201Z,33.30
2018-09-18T10:21:08.005Z,33.80
2018-09-18T10:23:35.817Z,34.30
2018-09-18T10:26:03.597Z,34.20
2018-09-18T10:28:31.424Z,34.80
2018-09-18T10:30:59.188Z,35.00
2018-09-18T10:33:27.000Z,34.60
2018-09-18T10:35:54.939Z,33.80
2018-09-18T10:38:22.931Z,33.70
2018-09-18T10:40:50.864Z,34.00
2018-09-18T10:43:18.605Z,33.30
2018-09-18T10:45:46.456Z,31.60
2018-09-18T10:48:14.206Z,31.70
2018-09-18T10:50:42.008Z,32.40
2018-09-18T10:53:09.781Z,33.10
2018-09-18T10:55:37.612Z,33.60
2018-09-18T10:58:05.964Z,34.70
2018-09-18T11:00:33.763Z,35.00
2018-09-18T11:03:03.159Z,36.40
2018-09-18T11:05:30.966Z,37.30
2018-09-18T11:07:58.834Z,37.60
2018-09-18T11:10:26.772Z,38.40
2018-09-18T11:12:54.608Z,38.90
2018-09-18T11:15:22.460Z,39.60
2018-09-18T11:17:51.480Z,40.40
2018-09-18T11:20:19.770Z,41.30
2018-09-18T11:22:47.527Z,42.60
2018-09-18T11:25:15.383Z,43.00
2018-09-18T11:27:43.251Z,43.60
2018-09-18T11:30:11.038Z,44.60
2018-09-18T11:32:38.971Z,45.20
2018-09-18T11:35:06.738Z,45.60
2018-09-18T11:37:34.525Z,45.20
2018-09-18T11:40:02.317Z,44.40
2018-09-18T11:42:30.133Z,44.90
2018-09-18T11:44:57.920Z,45.00
2018-09-18T11:47:25.710Z,44.90
2018-09-18T11:49:53.614Z,44.60
2018-09-18T11:52:21.372Z,44.90
2018-09-18T11:54:49.193Z,45.10
2018-09-18T11:57:17.042Z,44.80
2018-09-18T11:59:44.765Z,44.00
2018-09-18T12:02:12.650Z,42.70
2018-09-18T12:04:40.492Z,43.20
2018-09-18T12:07:08.208Z,43.10
2018-09-18T12:09:36.004Z,43.80
2018-09-18T12:12:03.796Z,43.40
2018-09-18T12:14:31.581Z,42.30
2018-09-18T12:16:59.471Z,42.80
2018-09-18T12:19:27.343Z,43.40
2018-09-18T12:21:55.237Z,45.30
2018-09-18T12:24:23.206Z,45.50
2018-09-18T12:26:50.999Z,46.40
2018-09-18T12:29:18.776Z,46.10
2018-09-18T12:31:46.594Z,46.20
2018-09-18T12:34:14.385Z,46.00
2018-09-18T12:36:42.832Z,44.10
2018-09-18T12:39:10.645Z,43.50
2018-09-18T12:41:39.202Z,44.40
2018-09-18T12:44:07.233Z,44.30
2018-09-18T12:46:35.073Z,44.00
2018-09-18T12:49:02.912Z,44.70
2018-09-18T12:51:30.649Z,45.50
2018-09-18T12:53:58.564Z,45.40
2018-09-18T12:56:26.479Z,45.20
2018-09-18T12:58:54.301Z,44.70
2018-09-18T13:01:22.121Z,45.00
2018-09-18T13:03:51.228Z,44.90
2018-09-18T13:06:19.120Z,45.80
2018-09-18T13:08:46.825Z,46.50
2018-09-18T13:11:14.584Z,48.00
2018-09-18T13:13:42.390Z,46.80
2018-09-18T13:16:10.183Z,47.30
2018-09-18T13:18:37.965Z,48.60
2018-09-18T13:21:05.855Z,48.60
2018-09-18T13:23:33.638Z,47.50
2018-09-18T13:26:01.457Z,47.10
2018-09-18T13:28:29.255Z,47.60
2018-09-18T13:30:57.145Z,47.10
2018-09-18T13:33:25.018Z,46.60
2018-09-18T13:35:52.855Z,45.50
2018-09-18T13:38:20.681Z,44.30
2018-09-18T13:40:48.529Z,43.50
2018-09-18T13:43:16.305Z,44.40
2018-09-18T13:45:44.133Z,44.30
2018-09-18T13:48:11.887Z,43.20
2018-09-18T13:50:39.671Z,43.90
2018-09-18T13:53:07.588Z,43.80
2018-09-18T13:55:35.429Z,41.70
2018-09-18T13:58:03.393Z,41.10
2018-09-18T14:00:31.252Z,41.20
2018-09-18T14:02:59.122Z,41.40
2018-09-18T14:05:30.461Z,40.10
2018-09-18T14:07:58.207Z,38.70
2018-09-18T14:10:26.114Z,38.10
2018-09-18T14:12:53.885Z,36.70
2018-09-18T14:15:21.698Z,36.20
2018-09-18T14:17:49.477Z,36.70
2018-09-18T14:20:17.280Z,36.00
2018-09-18T14:22:45.092Z,36.10
2018-09-18T14:25:12.899Z,35.50
2018-09-18T14:27:40.705Z,34.90
2018-09-18T14:30:08.482Z,33.60
2018-09-18T14:32:36.252Z,33.50
2018-09-18T14:35:04.072Z,33.30
2018-09-18T14:37:31.865Z,33.50
2018-09-18T14:39:59.993Z,32.40
2018-09-18T14:42:28.101Z,32.90
2018-09-18T14:44:56.041Z,33.50
2018-09-18T14:47:23.828Z,33.10
2018-09-18T14:49:51.704Z,32.40
2018-09-18T14:52:19.493Z,32.60
2018-09-18T14:54:47.298Z,33.10
2018-09-18T14:57:15.124Z,33.50
2018-09-18T14:59:43.038Z,33.60
2018-09-18T15:02:10.867Z,32.00
2018-09-18T15:04:38.982Z,32.40
2018-09-18T15:07:07.515Z,32.50
2018-09-18T15:09:35.354Z,33.30
2018-09-18T15:12:03.264Z,32.90
2018-09-18T15:14:31.065Z,32.70
2018-09-18T15:16:58.922Z,33.00
2018-09-18T15:19:27.250Z,32.20
2018-09-18T15:21:55.171Z,32.60
2018-09-18T15:24:23.011Z,31.80
2018-09-18T15:26:53.061Z,32.30
2018-09-18T15:29:20.908Z,31.90
2018-09-18T15:31:48.798Z,31.70
2018-09-18T15:34:16.598Z,32.00
2018-09-18T15:36:44.473Z,31.90
2018-09-18T15:39:12.237Z,32.30
2018-09-18T15:41:39.997Z,32.30
2018-09-18T15:44:08.051Z,32.60
2018-09-18T15:46:36.156Z,33.30
2018-09-18T15:49:04.117Z,33.40
2018-09-18T15:51:32.121Z,33.80
2018-09-18T15:53:59.913Z,34.40
2018-09-18T15:56:27.789Z,34.70
2018-09-18T15:58:55.745Z,35.60
2018-09-18T16:01:23.552Z,36.90
2018-09-18T16:03:51.493Z,37.30
2018-09-18T16:06:19.322Z,38.40
2018-09-18T16:08:47.103Z,39.10
2018-09-18T16:11:14.901Z,38.50
2018-09-18T16:13:42.716Z,38.90
2018-09-18T16:16:10.626Z,38.70
2018-09-18T16:18:38.413Z,39.70
2018-09-18T16:21:06.216Z,40.10
2018-09-18T16:26:02.080Z,40.50
2018-09-18T16:28:30.017Z,39.80
2018-09-18T16:30:57.935Z,39.40
2018-09-18T16:33:26.149Z,40.90
2018-09-18T16:35:53.925Z,41.10
2018-09-18T16:38:21.868Z,41.80
2018-09-18T16:40:50.174Z,42.10
2018-09-18T16:43:17.933Z,42.30
2018-09-18T16:45:45.833Z,43.20
2018-09-18T16:48:13.677Z,43.80
2018-09-18T16:50:41.487Z,44.50
2018-09-18T16:53:09.326Z,45.50
2018-09-18T16:55:37.102Z,46.00
2018-09-18T16:58:04.912Z,46.30
2018-09-18T17:00:32.788Z,46.70
2018-09-18T17:03:00.554Z,47.20
2018-09-18T17:05:28.453Z,47.70
2018-09-18T17:07:56.411Z,48.70
2018-09-18T17:10:24.250Z,48.90
2018-09-18T17:12:52.010Z,49.30
2018-09-18T17:15:19.899Z,50.10
2018-09-18T17:17:47.685Z,50.70
2018-09-18T17:20:15.474Z,51.50
2018-09-18T17:22:43.351Z,52.40
2018-09-18T17:25:11.193Z,53.10
2018-09-18T17:27:38.982Z,53.50
2018-09-18T17:30:06.827Z,53.90
2018-09-18T17:32:34.634Z,54.50
2018-09-18T17:35:02.460Z,55.30
2018-09-18T17:37:30.316Z,54.50
2018-09-18T17:39:58.428Z,54.70
2018-09-18T17:42:26.267Z,54.60
2018-09-18T17:44:54.064Z,55.00
2018-09-18T17:47:22.019Z,54.90
2018-09-18T17:49:49.738Z,54.90
2018-09-18T17:52:17.498Z,55.50
2018-09-18T17:54:45.346Z,55.80
2018-09-18T17:57:13.186Z,56.00
2018-09-18T17:59:41.091Z,56.30
2018-09-18T18:02:09.339Z,56.50
2018-09-18T18:04:37.323Z,56.60
2018-09-18T18:07:05.317Z,56.20
2018-09-18T18:09:33.116Z,56.50
2018-09-18T18:12:00.976Z,56.80
2018-09-18T18:14:28.881Z,57.00
2018-09-18T18:16:56.814Z,57.00
2018-09-18T18:19:24.653Z,57.30
2018-09-18T18:21:52.438Z,57.20
2018-09-18T18:24:20.243Z,57.70
2018-09-18T18:26:48.064Z,57.40
2018-09-18T18:29:15.888Z,57.20
2018-09-18T18:31:43.744Z,57.30
2018-09-18T18:34:11.558Z,57.60
2018-09-18T18:36:39.625Z,57.60
2018-09-18T18:39:08.024Z,57.20
2018-09-18T18:41:35.949Z,57.20
2018-09-18T18:44:03.673Z,56.90
2018-09-18T18:46:31.501Z,56.80
2018-09-18T18:48:59.432Z,57.00
2018-09-18T18:51:27.381Z,57.10
2018-09-18T18:53:55.148Z,57.30
2018-09-18T18:56:22.935Z,57.40
2018-09-18T18:58:50.758Z,57.70
2018-09-18T19:01:18.583Z,57.70
2018-09-18T19:03:47.434Z,57.90
2018-09-18T19:06:15.238Z,57.60
2018-09-18T19:08:43.061Z,57.90
2018-09-18T19:11:10.856Z,57.70
2018-09-18T19:13:38.631Z,57.30
2018-09-18T19:16:06.425Z,57.20
2018-09-18T19:18:34.304Z,57.20
2018-09-18T19:21:02.071Z,57.20
2018-09-18T19:23:30.009Z,57.20
2018-09-18T19:25:57.921Z,57.60
2018-09-18T19:28:25.684Z,57.60
2018-09-18T19:30:53.584Z,57.30
2018-09-18T19:33:21.465Z,57.30
2018-09-18T19:35:49.265Z,57.40
2018-09-18T19:38:17.108Z,57.70
2018-09-18T19:40:45.029Z,58.30
2018-09-18T19:43:12.903Z,58.30
2018-09-18T19:45:40.765Z,58.10
2018-09-18T19:48:08.650Z,58.30
2018-09-18T19:50:36.649Z,58.30
2018-09-18T19:53:04.514Z,57.80
2018-09-18T19:55:32.486Z,57.70
2018-09-18T19:58:00.289Z,57.60
2018-09-18T20:00:28.146Z,57.40
2018-09-18T20:02:55.990Z,57.60
2018-09-18T20:05:23.822Z,57.90
2018-09-18T20:07:51.619Z,57.80
2018-09-18T20:10:19.401Z,58.00
2018-09-18T20:12:47.315Z,58.30
2018-09-18T20:15:15.133Z,58.60
2018-09-18T20:17:43.102Z,59.00
2018-09-18T20:20:10.900Z,58.90
2018-09-18T20:22:38.701Z,59.10
2018-09-18T20:25:06.550Z,58.80
2018-09-18T20:27:34.378Z,59.10
2018-09-18T20:30:02.239Z,59.00
2018-09-18T20:32:30.234Z,59.30
2018-09-18T20:34:58.082Z,59.40
2018-09-18T20:37:25.864Z,59.50
2018-09-18T20:39:53.765Z,59.40
2018-09-18T20:42:21.663Z,59.80
2018-09-18T20:44:49.778Z,60.00
2018-09-18T20:47:19.382Z,60.10
2018-09-18T20:50:03.816Z,60.50
2018-09-18T20:52:33.052Z,60.60
2018-09-18T20:55:02.288Z,61.10
2018-09-18T20:57:30.229Z,61.30
2018-09-18T20:59:58.095Z,61.60
2018-09-18T21:02:26.047Z,62.30
2018-09-18T21:04:53.923Z,62.80
2018-09-18T21:07:21.797Z,63.10
2018-09-18T21:09:49.633Z,63.30
2018-09-18T21:12:17.501Z,63.30
2018-09-18T21:14:45.328Z,63.40
2018-09-18T21:17:13.153Z,62.60
2018-09-18T21:19:41.017Z,62.20
2018-09-18T21:22:09.989Z,61.70
2018-09-18T21:24:38.457Z,61.50
2018-09-18T21:27:06.577Z,61.30
2018-09-18T21:29:34.356Z,62.20
2018-09-18T21:32:02.149Z,62.40
2018-09-18T21:34:30.008Z,63.00
2018-09-18T21:36:57.948Z,63.20
2018-09-18T21:39:25.784Z,63.90
2018-09-18T21:41:53.576Z,64.60
2018-09-18T21:44:22.229Z,65.50
2018-09-18T21:46:50.065Z,65.60
2018-09-18T21:49:17.873Z,64.20
2018-09-18T21:51:45.612Z,63.60
2018-09-18T21:54:13.404Z,63.80
2018-09-18T21:56:41.174Z,64.80
2018-09-18T21:59:09.023Z,63.80
2018-09-18T22:01:52.013Z,64.00
2018-09-18T22:04:20.000Z,64.00
2018-09-18T22:06:47.794Z,64.20
2018-09-18T22:09:15.715Z,64.60
2018-09-18T22:11:43.545Z,64.90
2018-09-18T22:14:16.322Z,65.60
2018-09-18T22:16:44.155Z,66.00
2018-09-18T22:19:11.913Z,66.50
2018-09-18T22:21:39.699Z,66.70
2018-09-18T22:24:07.469Z,66.90
2018-09-18T22:26:35.245Z,67.70
2018-09-18T22:29:05.321Z,67.90
2018-09-18T22:31:33.148Z,68.20
2018-09-18T22:34:01.108Z,68.60
2018-09-18T22:36:28.946Z,68.90
2018-09-18T22:38:56.940Z,69.10
2018-09-18T22:41:24.764Z,69.10
2018-09-18T22:43:52.589Z,69.30
2018-09-18T22:46:20.389Z,69.10
2018-09-18T22:48:48.165Z,69.20
2018-09-18T22:51:16.135Z,69.50
2018-09-18T22:53:43.921Z,69.70
2018-09-18T22:56:11.712Z,69.60
2018-09-18T22:58:39.662Z,69.50
2018-09-18T23:01:08.058Z,69.50
2018-09-18T23:03:36.057Z,69.40
2018-09-18T23:06:03.848Z,69.30
2018-09-18T23:08:31.771Z,69.40
2018-09-18T23:10:59.712Z,69.00
2018-09-18T23:13:27.493Z,69.10
2018-09-18T23:15:55.370Z,69.10
2018-09-18T23:18:23.150Z,69.30
2018-09-18T23:20:50.929Z,69.00
2018-09-18T23:23:18.780Z,69.30
2018-09-18T23:25:46.573Z,68.70
2018-09-18T23:28:14.658Z,68.30
2018-09-18T23:30:42.440Z,66.80
2018-09-18T23:33:10.266Z,65.90
2018-09-18T23:35:38.044Z,66.20
2018-09-18T23:38:05.824Z,67.40
2018-09-18T23:40:33.593Z,68.10
2018-09-18T23:43:01.604Z,68.70
2018-09-18T23:45:32.801Z,69.50
2018-09-18T23:48:01.852Z,68.80
2018-09-18T23:50:29.746Z,68.70
2018-09-18T23:52:57.572Z,68.70
2018-09-18T23:55:25.428Z,67.90
2018-09-18T23:57:53.190Z,67.80
